WetterOnline ( https://www.wetteronline.de )

Wetter aktuell Lieberose

Aktuelles Wetter: Lindenberg b. Beeskow (104m)

6-stündlich | Neueste Meldungen
Ortszeit Temperatur Wetter
Do, 02.02. 7:00 4.0° C leichter Regen
Do, 02.02. 1:00 3.6° C bewölkt
Mi, 01.02. 19:00 2.2° C leicht bewölkt
Mi, 01.02. 13:00 4.0° C Sprühregen
Mi, 01.02. 7:00 4.3° C bewölkt
Mi, 01.02. 1:00 3.7° C leicht bewölkt
Di, 31.01. 19:00 4.4° C Sprühregen
Di, 31.01. 13:00 3.8° C bedeckt
Ortszeit Temperatur Wetter
Do, 02.02. 9:00 4.3° C bedeckt
Do, 02.02. 8:50 4.3° C bedeckt
Do, 02.02. 8:40 4.2° C bedeckt
Do, 02.02. 8:30 3.9° C leichter Regen
Do, 02.02. 8:20 3.9° C leichter Regen
Do, 02.02. 8:10 4.0° C leichter Regen
Do, 02.02. 8:00 4.0° C leichter Regen
Do, 02.02. 7:30 4.1° C wolkig
Do, 02.02. 7:00 4.0° C leichter Regen
Do, 02.02. 6:30 4.1° C Sprühregen
Do, 02.02. 6:00 4.4° C leichter Regen
Ortszeit Relative Feuchte Sichtweite
Do, 02.02. 7:00 87% 15 km
Do, 02.02. 1:00 78% 35 km
Mi, 01.02. 19:00 92% 60 km
Mi, 01.02. 13:00 91% 30 km
Mi, 01.02. 7:00 76% 30 km
Mi, 01.02. 1:00 82% 29 km
Di, 31.01. 19:00 94% 12 km
Di, 31.01. 13:00 86% 40 km
Ortszeit Relative Feuchte Sichtweite
Do, 02.02. 9:00 81% 40 km
Do, 02.02. 8:50 81% -
Do, 02.02. 8:40 82% -
Do, 02.02. 8:30 86% 12 km
Do, 02.02. 8:20 86% -
Do, 02.02. 8:10 84% -
Do, 02.02. 8:00 84% 22 km
Do, 02.02. 7:30 84% 30 km
Do, 02.02. 7:00 87% 15 km
Do, 02.02. 6:30 85% 22 km
Do, 02.02. 6:00 82% 19 km
Ortszeit Niederschlagsmenge Niederschlagsart
Do, 02.02. 7:00 0.3 l/m2 in 12 Std. Regen
Do, 02.02. 1:00 0.1 l/m2 in 6 Std. Regen
Mi, 01.02. 19:00 6 l/m2 in 12 Std. Schnee, Regen
Mi, 01.02. 13:00 2 l/m2 in 6 Std. Regen
Mi, 01.02. 7:00 3 l/m2 in 12 Std. Sprühregen
Mi, 01.02. 1:00 3 l/m2 in 6 Std. Regen
Di, 31.01. 19:00 0.5 l/m2 in 12 Std. Regen
Di, 31.01. 13:00 0.1 l/m2 in 6 Std. Regen
Ortszeit Niederschlagsmenge Niederschlagsart
Do, 02.02. 9:00 <0.05 l/m2 in 1 Std. Regen
Do, 02.02. 8:50 keine Meldung -
Do, 02.02. 8:40 keine Meldung -
Do, 02.02. 8:30 <0.05 l/m2 in 30 Min -
Do, 02.02. 8:20 keine Meldung -
Do, 02.02. 8:10 keine Meldung -
Do, 02.02. 8:00 0.2 l/m2 in 1 Std. Regen
Do, 02.02. 7:30 0.2 l/m2 in 30 Min Schneeregen
Do, 02.02. 7:00 0.2 l/m2 in 1 Std. Regen
Do, 02.02. 6:30 0.1 l/m2 in 30 Min -
Do, 02.02. 6:00 <0.05 l/m2 in 1 Std. Regen
Ortszeit Stärke Spitze Richtung
km/h Bft. km/h Grad Sektor
Do, 02.02. 7:00 28 4 61 290° W
Do, 02.02. 1:00 32 5 50 270° W
Mi, 01.02. 19:00 26 4 54 280° W
Mi, 01.02. 13:00 29 5 61 270° W
Mi, 01.02. 7:00 28 4 50 250° W
Mi, 01.02. 1:00 28 4 69 270° W
Di, 31.01. 19:00 30 5 57 250° W
Di, 31.01. 13:00 28 4 46 250° W
Ortszeit Stärke Spitze Richtung
km/h Bft. km/h Grad Sektor
Do, 02.02. 9:00 25 4 47 300° NW
Do, 02.02. 8:50 25 4 - 300° NW
Do, 02.02. 8:40 24 4 - 290° W
Do, 02.02. 8:30 24 4 46 300° NW
Do, 02.02. 8:20 24 4 - 300° NW
Do, 02.02. 8:10 24 4 - 300° NW
Do, 02.02. 8:00 29 5 50 300° NW
Do, 02.02. 7:30 28 4 44 300° NW
Do, 02.02. 7:00 28 4 56 290° W
Do, 02.02. 6:30 28 4 56 290° W
Do, 02.02. 6:00 33 5 59 290° W
Ortszeit Untergrenze Bedeckung Gattung
total tief tief mittel hoch
Do, 02.02. 7:00 570 m 7/8 7/8 - - -
Do, 02.02. 1:00 600 m 7/8 7/8 - - -
Mi, 01.02. 19:00 360 m 3/8 3/8 - - -
Mi, 01.02. 13:00 270 m 7/8 7/8 - - -
Mi, 01.02. 7:00 780 m 7/8 7/8 - - -
Mi, 01.02. 1:00 810 m 2/8 2/8 - - -
Di, 31.01. 19:00 - 8/8 - - - -
Di, 31.01. 13:00 360 m 8/8 8/8 - - -
Ortszeit Bedeckungsgrad in Achtel und Wolkenuntergrenze
Do, 02.02. 9:00 4(630m) 5(810m) 8(1080m)
Do, 02.02. 8:50 4(630m) 5(810m) 8(1080m)
Do, 02.02. 8:40 8
Do, 02.02. 8:30 5(540m) 7(840m) 7(1260m)
Do, 02.02. 8:20 5(540m) 7(840m) 7(1260m)
Do, 02.02. 8:10 7
Do, 02.02. 8:00 3(510m) 6(810m) 7(1260m)
Do, 02.02. 7:30 5(480m) 6(630m)
Do, 02.02. 7:00 5(570m) 7(870m) 7(1410m)
Do, 02.02. 6:30 5(540m) 7(780m)
Do, 02.02. 6:00 6(540m) 7(750m) 8(930m)
Ortszeit Luftdruck NN (hPa) Tendenz (hPa in 3 Std.)
Do, 02.02. 7:00 1011 + 2,6
Do, 02.02. 1:00 1009 - 0,2
Mi, 01.02. 19:00 1008 - 0,1
Mi, 01.02. 13:00 1009 + 0,6
Mi, 01.02. 7:00 1010 - 0,9
Mi, 01.02. 1:00 1011 + 0,8
Di, 31.01. 19:00 1011 - 1,0
Di, 31.01. 13:00 1015 - 2,4
Ortszeit Luftdruck NN (hPa) Tendenz (hPa in 3 Std.)
Do, 02.02. 9:00 1013 + 3,2
Do, 02.02. 8:50 1013 keine Meldung
Do, 02.02. 8:40 1013 keine Meldung
Do, 02.02. 8:30 1013 + 3,3
Do, 02.02. 8:20 1013 keine Meldung
Do, 02.02. 8:10 1012 keine Meldung
Do, 02.02. 8:00 1012 + 3,2
Do, 02.02. 7:30 1012 + 3,0
Do, 02.02. 7:00 1011 + 2,6
Do, 02.02. 6:30 1011 + 2,4
Do, 02.02. 6:00 1010 + 2,0
Ortszeit Schneehöhe (cm)
Do, 02.02. 7:00 0
Do, 02.02. 1:00 0
Mi, 01.02. 19:00 0
Mi, 01.02. 13:00 0
Mi, 01.02. 7:00 0
Mi, 01.02. 1:00 0
Di, 31.01. 19:00 0
Di, 31.01. 13:00 0
Ortszeit Schneehöhe (cm)
Do, 02.02. 9:00 0
Do, 02.02. 8:50 0
Do, 02.02. 8:40 0
Do, 02.02. 8:30 0
Do, 02.02. 8:20 0
Do, 02.02. 8:10 0
Do, 02.02. 8:00 0
Do, 02.02. 7:30 0
Do, 02.02. 7:00 0
Do, 02.02. 6:30 0
Do, 02.02. 6:00 0
Link zu dieser Seite / Seite empfehlen

Das Wetter in ...